Hovedside
METAR-TAF:

METAR-TAF

Lufthavner :

Roskilde lufthavn

Roskilde, Danmark

breddegrad: 55-35N, lengdegrad: 012-08E, høyde over havet: 44 m

Gjeldene værobservasjon

Denne rapporten ble laget for 31 minutter siden, klokken 19:50 UTC
Vind 7 kt fra Sørøst
Temperatur 7°C
Luftfuktighet 87%
Trykk 1014 hPa
Sikt 10 km eller mer

METAR: EKRK 141950Z AUTO 14007KT 9999 BKN015/// 07/05 Q1014

Tid: 21:21 (20:21 UTC)

Varsel

Denne rapporten ble laget for 3 timer og 4 minutter siden, klokken 17:17 UTC
Varsel gyldig fra 14. klokken 18 UTC til 15. klokken 03 UTC
Vind 8 kt fra Øst
Sikt: 8000 m
Spredte skyer i en høyde av 1200 ft
Midlertidig
fra 14. klokken 18 UTC til 15. klokken 03 UTC
Sikt: 4000 m
Brutte skyer i en høyde av 800 ft
dis

TAF: EKRK 141717Z 1418/1503 10008KT 8000 SCT012 TEMPO 1418/1503 4000 BR BKN008

Værobservasjoner og værvarsel for over 4000 flyplasser (METAR- og TAF-rapporter).

Tilgjengelige stasjoner er representert av de røde og gule prikkene på kartet.

Hold musepekeren over prikken for å se navnet på stasjonen.

Klikk så for å se værobservasjoner og -varsler.

For å forandre kartet kan du klikke på den grønne knappen med svart kryss for å zoome inn, på den grønne knappen med strek for å zoome ut, eller på de grønne pilene for å se tilstøtende kart.


METAR-TAF: